createdAt,value
2023-01-28T00:01:36.499Z,146.48
2023-01-28T00:04:04.306Z,133.50
2023-01-28T00:06:34.150Z,133.65
2023-01-28T00:09:03.551Z,146.00
2023-01-28T00:11:33.688Z,140.45
2023-01-28T00:14:02.240Z,144.27
2023-01-28T00:16:30.558Z,152.60
2023-01-28T00:18:57.879Z,143.70
2023-01-28T00:21:31.014Z,158.32
2023-01-28T00:23:59.750Z,148.23
2023-01-28T00:26:27.229Z,142.60
2023-01-28T00:28:54.432Z,143.05
2023-01-28T00:31:27.552Z,125.25
2023-01-28T00:33:57.386Z,138.23
2023-01-28T00:36:26.273Z,143.25
2023-01-28T00:38:57.012Z,140.73
2023-01-28T00:41:29.903Z,149.73
2023-01-28T00:43:57.212Z,144.98
2023-01-28T00:46:26.728Z,143.80
2023-01-28T00:48:54.216Z,151.13
2023-01-28T00:51:21.919Z,143.38
2023-01-28T00:53:50.094Z,147.95
2023-01-28T00:56:19.792Z,144.10
2023-01-28T00:58:48.558Z,141.30
2023-01-28T01:01:25.131Z,140.00
2023-01-28T01:04:03.019Z,131.80
2023-01-28T01:06:47.394Z,134.65
2023-01-28T01:09:16.558Z,137.45
2023-01-28T01:11:43.960Z,135.18
2023-01-28T01:14:11.800Z,126.07
2023-01-28T01:16:39.159Z,136.07
2023-01-28T01:19:12.630Z,134.95
2023-01-28T01:21:40.003Z,139.52
2023-01-28T01:24:07.781Z,134.18
2023-01-28T01:26:34.875Z,134.32
2023-01-28T01:29:02.354Z,118.18
2023-01-28T01:31:29.809Z,124.43
2023-01-28T01:33:58.269Z,111.38
2023-01-28T01:36:26.292Z,112.65
2023-01-28T01:38:55.607Z,111.43
2023-01-28T01:41:29.942Z,112.70
2023-01-28T01:44:04.903Z,110.88
2023-01-28T01:46:40.389Z,110.03
2023-01-28T01:49:28.977Z,113.25
2023-01-28T01:52:07.725Z,112.70
2023-01-28T01:54:37.732Z,114.40
2023-01-28T01:57:09.451Z,118.68
2023-01-28T01:59:38.245Z,113.68
2023-01-28T02:02:08.339Z,112.72
2023-01-28T02:04:45.308Z,121.03
2023-01-28T02:07:16.570Z,122.60
2023-01-28T02:09:44.110Z,114.68
2023-01-28T02:12:26.344Z,109.80
2023-01-28T02:15:07.727Z,124.30
2023-01-28T02:17:36.646Z,122.43
2023-01-28T02:20:07.906Z,118.47
2023-01-28T02:23:05.514Z,116.53
2023-01-28T02:26:03.210Z,116.25
2023-01-28T02:28:52.293Z,118.30
2023-01-28T02:31:23.569Z,109.07
2023-01-28T02:34:05.349Z,115.32
2023-01-28T02:36:57.167Z,117.57
2023-01-28T02:39:30.621Z,107.60
2023-01-28T02:42:06.824Z,106.38
2023-01-28T02:44:35.100Z,108.00
2023-01-28T02:47:20.929Z,115.50
2023-01-28T02:49:52.441Z,112.53
2023-01-28T02:52:19.914Z,108.80
2023-01-28T02:55:26.019Z,108.97
2023-01-28T02:58:07.883Z,107.05
2023-01-28T03:00:51.055Z,115.43
2023-01-28T03:03:44.950Z,116.43
2023-01-28T03:09:09.433Z,111.05
2023-01-28T03:12:06.695Z,119.47
2023-01-28T03:14:56.857Z,114.00
2023-01-28T03:17:53.127Z,117.20
2023-01-28T03:20:45.019Z,117.50
2023-01-28T03:23:36.440Z,120.30
2023-01-28T03:26:26.387Z,114.75
2023-01-28T03:29:17.469Z,99.00
2023-01-28T03:32:03.657Z,97.85
2023-01-28T03:34:49.372Z,96.32
2023-01-28T03:37:18.012Z,94.63
2023-01-28T03:39:45.231Z,105.30
2023-01-28T03:42:14.983Z,100.72
2023-01-28T03:44:55.571Z,98.22
2023-01-28T03:47:30.096Z,93.47
2023-01-28T03:50:00.118Z,94.28
2023-01-28T03:52:37.252Z,97.13
2023-01-28T03:55:14.095Z,95.25
2023-01-28T03:57:45.091Z,92.22
2023-01-28T04:00:14.136Z,93.00
2023-01-28T04:02:41.362Z,89.95
2023-01-28T04:05:13.392Z,95.85
2023-01-28T04:07:41.047Z,91.65
2023-01-28T04:10:09.293Z,96.70
2023-01-28T04:12:38.139Z,91.88
2023-01-28T04:15:16.167Z,96.63
2023-01-28T04:17:50.725Z,93.47
2023-01-28T04:20:18.590Z,95.25
2023-01-28T04:22:46.692Z,86.15
2023-01-28T04:25:16.122Z,91.22
2023-01-28T04:27:43.726Z,96.78
2023-01-28T04:30:12.704Z,90.32
2023-01-28T04:32:40.213Z,92.97
2023-01-28T04:35:14.088Z,86.15
2023-01-28T04:37:42.721Z,85.40
2023-01-28T04:40:11.745Z,93.43
2023-01-28T04:42:40.017Z,91.22
2023-01-28T04:45:13.466Z,89.43
2023-01-28T04:47:42.926Z,90.28
2023-01-28T04:50:10.532Z,90.80
2023-01-28T04:52:38.800Z,87.32
2023-01-28T04:55:08.621Z,95.22
2023-01-28T04:57:38.272Z,88.03
2023-01-28T05:00:06.267Z,90.68
2023-01-28T05:02:33.911Z,89.57
2023-01-28T05:05:05.074Z,96.50
2023-01-28T05:07:32.185Z,100.80
2023-01-28T05:09:59.623Z,92.25
2023-01-28T05:12:27.145Z,99.28
2023-01-28T05:14:54.633Z,92.53
2023-01-28T05:17:22.001Z,99.75
2023-01-28T05:19:49.526Z,107.38
2023-01-28T05:22:18.031Z,99.13
2023-01-28T05:24:45.436Z,103.15
2023-01-28T05:27:12.868Z,98.93
2023-01-28T05:29:40.335Z,99.60
2023-01-28T05:32:07.818Z,101.22
2023-01-28T05:34:37.358Z,105.28
2023-01-28T05:37:14.006Z,88.18
2023-01-28T05:39:53.636Z,94.45
2023-01-28T05:42:22.844Z,95.22
2023-01-28T05:44:50.191Z,96.10
2023-01-28T05:47:19.695Z,95.22
2023-01-28T05:49:47.105Z,94.22
2023-01-28T05:52:15.662Z,89.47
2023-01-28T05:54:42.986Z,93.13
2023-01-28T05:57:10.484Z,87.82
2023-01-28T05:59:39.024Z,90.57
2023-01-28T06:02:08.464Z,91.50
2023-01-28T06:04:38.076Z,96.65
2023-01-28T06:07:05.395Z,89.82
2023-01-28T06:09:32.859Z,96.60
2023-01-28T06:12:00.276Z,90.70
2023-01-28T06:14:27.839Z,92.55
2023-01-28T06:16:55.306Z,95.50
2023-01-28T06:19:23.790Z,93.82
2023-01-28T06:21:52.297Z,108.47
2023-01-28T06:24:20.019Z,93.28
2023-01-28T06:26:48.260Z,99.82
2023-01-28T06:29:15.950Z,96.93
2023-01-28T06:31:49.626Z,95.07
2023-01-28T06:34:17.432Z,106.18
2023-01-28T06:36:51.332Z,107.43
2023-01-28T06:39:22.424Z,102.78
2023-01-28T06:41:50.777Z,106.60
2023-01-28T06:44:18.432Z,91.63
2023-01-28T06:46:51.402Z,98.35
2023-01-28T06:49:18.859Z,104.57
2023-01-28T06:51:46.299Z,92.38
2023-01-28T06:54:15.071Z,96.55
2023-01-28T06:56:44.625Z,93.18
2023-01-28T06:59:12.878Z,90.95
2023-01-28T07:01:41.317Z,91.18
2023-01-28T07:04:09.135Z,93.30
2023-01-28T07:06:37.321Z,90.13
2023-01-28T07:09:06.835Z,82.13
2023-01-28T07:11:34.272Z,86.63
2023-01-28T07:14:02.154Z,91.40
2023-01-28T07:16:30.708Z,86.15
2023-01-28T07:18:58.156Z,88.95
2023-01-28T07:21:25.601Z,88.53
2023-01-28T07:23:53.270Z,74.57
2023-01-28T07:26:20.474Z,76.57
2023-01-28T07:28:48.089Z,77.25
2023-01-28T07:31:16.657Z,83.15
2023-01-28T07:33:43.892Z,78.93
2023-01-28T07:36:11.406Z,79.88
2023-01-28T07:38:39.831Z,86.60
2023-01-28T07:41:08.664Z,85.30
2023-01-28T07:43:35.872Z,81.40
2023-01-28T07:46:15.645Z,105.90
2023-01-28T07:48:46.052Z,92.95
2023-01-28T07:51:13.967Z,83.97
2023-01-28T07:53:41.655Z,87.63
2023-01-28T07:56:10.945Z,110.15
2023-01-28T07:58:39.402Z,92.88
2023-01-28T08:01:06.919Z,102.20
2023-01-28T08:03:34.669Z,104.45
2023-01-28T08:06:03.997Z,95.13
2023-01-28T08:08:31.450Z,92.05
2023-01-28T08:11:09.045Z,85.10
2023-01-28T08:13:37.606Z,86.47
2023-01-28T08:16:06.386Z,80.95
2023-01-28T08:18:34.040Z,86.30
2023-01-28T08:21:05.394Z,98.85
2023-01-28T08:23:34.779Z,93.07
2023-01-28T08:26:02.055Z,84.07
2023-01-28T08:28:29.574Z,90.82
2023-01-28T08:31:00.558Z,90.30
2023-01-28T08:33:28.182Z,92.05
2023-01-28T08:35:55.327Z,85.95
2023-01-28T08:38:23.185Z,80.45
2023-01-28T08:40:51.395Z,84.22
2023-01-28T08:43:18.758Z,89.35
2023-01-28T08:45:46.236Z,81.40
2023-01-28T08:48:16.803Z,92.70
2023-01-28T08:50:45.829Z,92.97
2023-01-28T08:53:19.637Z,97.30
2023-01-28T08:55:47.825Z,102.18
2023-01-28T08:58:18.640Z,128.65
2023-01-28T09:00:48.901Z,195.07
2023-01-28T09:03:16.513Z,140.38
2023-01-28T09:05:50.661Z,237.35
2023-01-28T09:08:18.234Z,264.67
2023-01-28T09:10:45.723Z,201.52
2023-01-28T09:13:26.146Z,173.52
2023-01-28T09:15:53.510Z,154.93
2023-01-28T09:18:26.932Z,134.27
2023-01-28T09:23:21.374Z,126.72
2023-01-28T09:25:48.768Z,134.90
2023-01-28T09:28:16.297Z,121.50
2023-01-28T09:30:43.693Z,107.22
2023-01-28T09:33:12.129Z,108.15
2023-01-28T09:35:39.656Z,103.90
2023-01-28T09:38:08.259Z,115.18
2023-01-28T09:40:43.055Z,144.15
2023-01-28T09:43:10.122Z,154.80
2023-01-28T09:45:43.053Z,160.43
2023-01-28T09:48:18.938Z,147.73
2023-01-28T09:50:50.693Z,158.15
2023-01-28T09:53:24.075Z,110.78
2023-01-28T09:58:19.874Z,98.30
2023-01-28T10:01:24.600Z,97.72
2023-01-28T10:04:14.042Z,102.68
2023-01-28T10:06:46.987Z,111.13
2023-01-28T10:09:34.854Z,288.38
2023-01-28T10:12:28.717Z,225.25
2023-01-28T10:17:48.516Z,128.57
2023-01-28T10:20:29.059Z,140.10
2023-01-28T10:23:12.441Z,136.73
2023-01-28T10:25:45.331Z,112.85
2023-01-28T10:28:21.561Z,142.63
2023-01-28T10:30:50.380Z,136.13
2023-01-28T10:33:38.081Z,120.90
2023-01-28T10:36:06.246Z,120.55
2023-01-28T10:38:34.026Z,107.20
2023-01-28T10:41:03.621Z,101.47
2023-01-28T10:43:35.836Z,93.63
2023-01-28T10:46:13.466Z,101.28
2023-01-28T10:48:55.393Z,116.72
2023-01-28T10:51:41.167Z,121.05
2023-01-28T10:54:34.878Z,129.55
2023-01-28T10:57:16.887Z,169.57
2023-01-28T10:59:44.754Z,134.50
2023-01-28T11:02:37.308Z,99.90
2023-01-28T11:05:33.970Z,123.95
2023-01-28T11:08:15.265Z,145.75
2023-01-28T11:10:44.241Z,152.63
2023-01-28T11:13:26.123Z,112.43
2023-01-28T11:16:01.382Z,108.57
2023-01-28T11:18:32.287Z,112.13
2023-01-28T11:21:14.882Z,92.07
2023-01-28T11:24:27.699Z,76.13
2023-01-28T11:26:58.052Z,80.18
2023-01-28T11:29:30.258Z,80.85
2023-01-28T11:31:57.776Z,85.10
2023-01-28T11:34:33.661Z,89.18
2023-01-28T11:37:13.846Z,97.05
2023-01-28T11:39:41.279Z,100.10
2023-01-28T11:42:19.513Z,115.53
2023-01-28T11:44:48.651Z,114.85
2023-01-28T11:47:42.220Z,124.75
2023-01-28T11:51:02.959Z,98.93
2023-01-28T11:53:51.981Z,86.22
2023-01-28T11:56:32.068Z,85.72
2023-01-28T11:59:27.166Z,83.90
2023-01-28T12:02:22.559Z,93.68
2023-01-28T12:05:29.225Z,80.63
2023-01-28T12:08:20.771Z,61.35
2023-01-28T12:11:08.121Z,76.53
2023-01-28T12:14:10.803Z,73.72
2023-01-28T12:17:30.786Z,114.10
2023-01-28T12:20:28.344Z,119.38
2023-01-28T12:23:22.167Z,158.25
2023-01-28T12:26:03.409Z,165.93
2023-01-28T12:29:13.507Z,115.72
2023-01-28T12:32:18.752Z,159.70
2023-01-28T12:35:04.272Z,116.05
2023-01-28T12:37:53.711Z,114.65
2023-01-28T12:40:44.350Z,105.15
2023-01-28T12:43:15.366Z,94.30
2023-01-28T12:46:09.900Z,86.88
2023-01-28T12:48:54.622Z,86.50
2023-01-28T12:51:29.380Z,97.72
2023-01-28T12:54:22.783Z,141.65
2023-01-28T12:56:55.639Z,109.93
2023-01-28T12:59:42.845Z,107.93
2023-01-28T13:02:12.838Z,99.15
2023-01-28T13:04:50.508Z,115.32
2023-01-28T13:07:36.441Z,126.80
2023-01-28T13:10:22.961Z,125.18
2023-01-28T13:12:50.820Z,116.28
2023-01-28T13:15:21.269Z,97.05
2023-01-28T13:18:34.754Z,96.82
2023-01-28T13:21:06.441Z,104.80
2023-01-28T13:23:52.073Z,84.10
2023-01-28T13:26:19.537Z,73.45
2023-01-28T13:28:52.432Z,68.88
2023-01-28T13:31:23.245Z,58.08
2023-01-28T13:33:56.940Z,56.72
2023-01-28T13:36:49.055Z,48.08
2023-01-28T13:39:24.361Z,49.75
2023-01-28T13:41:56.098Z,49.47
2023-01-28T13:44:26.607Z,53.50
2023-01-28T13:46:58.293Z,50.67
2023-01-28T13:49:48.269Z,58.00
2023-01-28T13:52:26.648Z,53.33
2023-01-28T13:55:12.041Z,53.83
2023-01-28T13:58:25.881Z,54.35
2023-01-28T14:00:55.885Z,56.30
2023-01-28T14:03:54.447Z,54.92
2023-01-28T14:06:33.859Z,55.80
2023-01-28T14:09:29.969Z,51.17
2023-01-28T14:12:24.600Z,57.65
2023-01-28T14:15:08.241Z,62.88
2023-01-28T14:20:42.637Z,65.05
2023-01-28T14:23:22.384Z,68.65
2023-01-28T14:26:02.136Z,72.72
2023-01-28T14:28:35.737Z,71.63
2023-01-28T14:31:18.709Z,72.07
2023-01-28T14:33:47.229Z,65.53
2023-01-28T14:36:15.035Z,72.25
2023-01-28T14:38:45.539Z,69.72
2023-01-28T14:41:23.927Z,65.25
2023-01-28T14:43:58.827Z,72.05
2023-01-28T14:46:50.428Z,66.45
2023-01-28T14:49:41.122Z,70.35
2023-01-28T14:53:03.808Z,72.53
2023-01-28T14:55:33.949Z,73.22
2023-01-28T14:58:07.255Z,63.38
2023-01-28T15:03:24.891Z,64.95
2023-01-28T15:06:14.864Z,67.43
2023-01-28T15:08:42.406Z,72.72
2023-01-28T15:11:13.817Z,60.53
2023-01-28T15:13:45.567Z,61.75
2023-01-28T15:16:24.138Z,65.70
2023-01-28T15:18:53.041Z,63.50
2023-01-28T15:21:26.305Z,67.50
2023-01-28T15:26:29.249Z,50.83
2023-01-28T15:28:57.631Z,52.38
2023-01-28T15:31:29.386Z,54.88
2023-01-28T15:34:16.986Z,49.70
2023-01-28T15:36:45.617Z,52.22
2023-01-28T15:39:24.216Z,56.10
2023-01-28T15:41:59.511Z,62.63
2023-01-28T15:44:35.169Z,59.83
2023-01-28T15:47:13.911Z,60.25
2023-01-28T15:49:45.764Z,60.08
2023-01-28T15:52:13.610Z,63.92
2023-01-28T15:54:49.147Z,58.95
2023-01-28T15:57:21.169Z,59.50
2023-01-28T15:59:51.535Z,54.53
2023-01-28T16:02:21.740Z,56.72
2023-01-28T16:05:03.612Z,52.22
2023-01-28T16:07:33.247Z,56.47
2023-01-28T16:10:03.780Z,55.25
2023-01-28T16:12:31.028Z,60.70
2023-01-28T16:15:04.480Z,61.13
2023-01-28T16:17:40.485Z,56.58
2023-01-28T16:20:20.199Z,59.38
2023-01-28T16:22:48.511Z,63.92
2023-01-28T16:25:26.039Z,79.97
2023-01-28T16:27:54.151Z,64.38
2023-01-28T16:30:22.744Z,66.15
2023-01-28T16:32:50.400Z,64.85
2023-01-28T16:36:04.668Z,56.88
2023-01-28T16:38:31.423Z,60.08
2023-01-28T16:40:59.552Z,62.35
2023-01-28T16:43:26.978Z,58.92
2023-01-28T16:46:01.200Z,61.83
2023-01-28T16:48:30.832Z,59.35
2023-01-28T16:50:58.405Z,54.30
2023-01-28T16:53:35.280Z,47.35
2023-01-28T16:56:02.948Z,49.67
2023-01-28T16:58:30.805Z,45.58
2023-01-28T17:00:58.265Z,45.88
2023-01-28T17:03:26.163Z,48.35
2023-01-28T17:05:54.301Z,44.92
2023-01-28T17:08:23.104Z,46.42
2023-01-28T17:10:57.112Z,41.58
2023-01-28T17:13:24.397Z,36.10
2023-01-28T17:15:53.208Z,37.72
2023-01-28T17:18:20.993Z,34.33
2023-01-28T17:20:48.600Z,35.58
2023-01-28T17:23:16.949Z,33.90
2023-01-28T17:25:44.245Z,36.80
2023-01-28T17:28:11.767Z,35.08
2023-01-28T17:30:41.637Z,34.60
2023-01-28T17:33:09.873Z,33.45
2023-01-28T17:35:37.860Z,33.85
2023-01-28T17:38:06.449Z,34.40
2023-01-28T17:40:34.440Z,37.22
2023-01-28T17:43:02.719Z,41.30
2023-01-28T17:45:34.060Z,40.97
2023-01-28T17:48:03.298Z,58.45
2023-01-28T17:50:32.061Z,47.22
2023-01-28T17:52:59.804Z,66.30
2023-01-28T17:55:30.402Z,54.13
2023-01-28T17:57:58.791Z,42.00
2023-01-28T18:00:27.339Z,44.13
2023-01-28T18:02:54.941Z,39.63
2023-01-28T18:05:22.682Z,38.17
2023-01-28T18:07:52.437Z,37.08
2023-01-28T18:10:20.480Z,40.30
2023-01-28T18:12:48.011Z,32.92
2023-01-28T18:15:15.982Z,35.65
2023-01-28T18:17:43.734Z,36.15
2023-01-28T18:20:12.078Z,41.53
2023-01-28T18:22:39.435Z,52.80
2023-01-28T18:25:07.700Z,58.75
2023-01-28T18:27:35.830Z,52.88
2023-01-28T18:30:05.832Z,54.75
2023-01-28T18:32:35.411Z,46.10
2023-01-28T18:35:03.012Z,49.50
2023-01-28T18:37:30.584Z,38.75
2023-01-28T18:39:57.966Z,50.25
2023-01-28T18:42:25.445Z,33.22
2023-01-28T18:44:53.413Z,40.92
2023-01-28T18:47:20.775Z,41.78
2023-01-28T18:49:50.368Z,35.63
2023-01-28T18:52:19.158Z,34.70
2023-01-28T18:54:46.507Z,36.50
2023-01-28T18:57:15.082Z,33.00
2023-01-28T18:59:42.856Z,40.92
2023-01-28T19:02:14.303Z,36.40
2023-01-28T19:04:42.182Z,38.67
2023-01-28T19:07:11.929Z,42.65
2023-01-28T19:09:39.858Z,38.40
2023-01-28T19:12:07.511Z,26.98
2023-01-28T19:14:37.937Z,32.47
2023-01-28T19:17:06.711Z,33.25
2023-01-28T19:19:34.664Z,29.02
2023-01-28T19:22:02.891Z,27.55
2023-01-28T19:24:30.833Z,27.25
2023-01-28T19:27:11.089Z,23.73
2023-01-28T19:29:38.903Z,24.02
2023-01-28T19:32:06.940Z,24.50
2023-01-28T19:34:35.173Z,27.10
2023-01-28T19:37:05.180Z,26.48
2023-01-28T19:39:33.407Z,29.27
2023-01-28T19:42:02.978Z,25.67
2023-01-28T19:44:31.025Z,28.02
2023-01-28T19:46:58.986Z,31.10
2023-01-28T19:49:29.995Z,32.60
2023-01-28T19:52:01.004Z,35.00
2023-01-28T19:54:36.486Z,30.98
2023-01-28T19:57:06.857Z,32.95
2023-01-28T19:59:35.490Z,40.90
2023-01-28T20:02:06.107Z,33.38
2023-01-28T20:04:38.217Z,34.13
2023-01-28T20:07:07.062Z,30.40
2023-01-28T20:09:35.812Z,28.63
2023-01-28T20:12:04.904Z,27.27
2023-01-28T20:14:39.526Z,26.83
2023-01-28T20:17:08.471Z,27.23
2023-01-28T20:19:43.633Z,52.80
2023-01-28T20:22:11.424Z,49.85
2023-01-28T20:24:41.705Z,28.48
2023-01-28T20:27:10.336Z,60.05
2023-01-28T20:29:38.020Z,35.60
2023-01-28T20:32:16.535Z,53.00
2023-01-28T20:34:47.351Z,28.13
2023-01-28T20:37:18.097Z,28.05
2023-01-28T20:39:46.816Z,26.67
2023-01-28T20:42:16.969Z,23.58
2023-01-28T20:44:44.806Z,54.05
2023-01-28T20:47:12.668Z,42.78
2023-01-28T20:49:40.506Z,39.67
2023-01-28T20:52:09.973Z,36.28
2023-01-28T20:54:38.090Z,41.53
2023-01-28T20:57:05.634Z,58.45
2023-01-28T20:59:33.208Z,132.63
2023-01-28T21:02:01.942Z,205.98
2023-01-28T21:04:29.789Z,96.32
2023-01-28T21:06:57.359Z,72.57
2023-01-28T21:09:38.003Z,34.97
2023-01-28T21:12:05.886Z,26.58
2023-01-28T21:14:33.897Z,35.05
2023-01-28T21:17:04.432Z,49.80
2023-01-28T21:19:33.567Z,196.18
2023-01-28T21:22:01.590Z,94.13
2023-01-28T21:24:29.223Z,109.60
2023-01-28T21:26:56.643Z,30.67
2023-01-28T21:29:24.010Z,34.53
2023-01-28T21:31:51.524Z,34.50
2023-01-28T21:34:19.535Z,43.35
2023-01-28T21:36:48.309Z,31.48
2023-01-28T21:39:18.148Z,23.08
2023-01-28T21:41:48.196Z,31.75
2023-01-28T21:44:15.519Z,27.60
2023-01-28T21:46:46.494Z,49.00
2023-01-28T21:49:14.288Z,28.70
2023-01-28T21:51:47.621Z,27.20
2023-01-28T21:56:48.467Z,30.50
2023-01-28T21:59:29.250Z,35.45
2023-01-28T22:02:04.475Z,31.45
2023-01-28T22:04:37.436Z,28.48
2023-01-28T22:07:06.974Z,39.50
2023-01-28T22:09:35.672Z,66.03
2023-01-28T22:12:05.360Z,66.28
2023-01-28T22:14:33.211Z,292.65
2023-01-28T22:17:00.754Z,113.18
2023-01-28T22:19:28.056Z,49.80
2023-01-28T22:21:55.597Z,38.45
2023-01-28T22:24:27.356Z,23.83
2023-01-28T22:26:57.585Z,19.83
2023-01-28T22:29:25.551Z,22.02
2023-01-28T22:31:54.094Z,23.15
2023-01-28T22:34:22.367Z,17.98
2023-01-28T22:36:52.205Z,18.10
2023-01-28T22:39:21.620Z,23.42
2023-01-28T22:41:49.064Z,26.90
2023-01-28T22:44:16.511Z,24.50
2023-01-28T22:46:43.921Z,17.00
2023-01-28T22:49:15.387Z,16.25
2023-01-28T22:51:43.294Z,44.40
2023-01-28T22:54:15.164Z,18.60
2023-01-28T22:56:42.673Z,22.00
2023-01-28T22:59:16.062Z,17.40
2023-01-28T23:01:43.499Z,18.50
2023-01-28T23:04:11.179Z,16.65
2023-01-28T23:06:39.024Z,14.82
2023-01-28T23:09:06.773Z,12.60
2023-01-28T23:11:34.381Z,14.10
2023-01-28T23:14:22.072Z,14.63
2023-01-28T23:17:13.373Z,14.23
2023-01-28T23:19:59.393Z,16.05
2023-01-28T23:22:52.758Z,15.45
2023-01-28T23:25:20.678Z,18.65
2023-01-28T23:27:48.157Z,17.48
2023-01-28T23:30:16.085Z,17.40
2023-01-28T23:32:47.616Z,19.55
2023-01-28T23:35:15.802Z,18.05
2023-01-28T23:37:43.191Z,18.33
2023-01-28T23:40:24.772Z,18.58
2023-01-28T23:42:54.322Z,21.13
2023-01-28T23:45:22.759Z,19.58
2023-01-28T23:47:50.320Z,20.67
2023-01-28T23:50:19.366Z,24.02
2023-01-28T23:52:46.823Z,21.30
2023-01-28T23:55:14.215Z,22.17
2023-01-28T23:57:42.089Z,25.63
